createdAt,value
2022-12-07T00:00:40.380Z,97060.47
2022-12-07T00:03:25.947Z,97057.88
2022-12-07T00:06:14.140Z,97057.06
2022-12-07T00:08:59.687Z,97057.88
2022-12-07T00:11:46.146Z,97062.31
2022-12-07T00:14:31.816Z,97054.66
2022-12-07T00:17:17.404Z,97054.66
2022-12-07T00:20:03.199Z,97053.00
2022-12-07T00:22:48.957Z,97057.41
2022-12-07T00:25:34.606Z,97048.78
2022-12-07T00:28:19.870Z,97052.38
2022-12-07T00:31:10.865Z,97048.13
2022-12-07T00:33:56.803Z,97050.75
2022-12-07T00:36:42.458Z,97048.13
2022-12-07T00:39:27.849Z,97042.25
2022-12-07T00:42:13.306Z,97037.03
2022-12-07T00:44:58.762Z,97032.00
2022-12-07T00:47:44.171Z,97039.03
2022-12-07T00:50:29.522Z,97039.03
2022-12-07T00:53:15.966Z,97040.81
2022-12-07T00:56:16.655Z,97047.09
2022-12-07T00:59:04.211Z,97041.22
2022-12-07T01:01:49.972Z,97040.38
2022-12-07T01:04:35.961Z,97040.38
2022-12-07T01:07:21.631Z,97047.25
2022-12-07T01:10:07.813Z,97050.84
2022-12-07T01:12:54.043Z,97036.78
2022-12-07T01:15:44.912Z,97042.00
2022-12-07T01:18:32.241Z,97052.47
2022-12-07T01:21:26.864Z,97054.09
2022-12-07T01:24:14.358Z,97039.41
2022-12-07T01:26:59.892Z,97036.63
2022-12-07T01:29:45.503Z,97034.16
2022-12-07T01:32:31.482Z,97036.78
2022-12-07T01:35:16.864Z,97031.53
2022-12-07T01:38:02.110Z,97034.16
2022-12-07T01:40:55.308Z,97037.59
2022-12-07T01:44:26.029Z,97032.38
2022-12-07T01:47:11.244Z,97034.16
2022-12-07T01:49:56.842Z,97037.59
2022-12-07T01:52:44.590Z,97038.41
2022-12-07T01:55:30.966Z,97035.59
2022-12-07T01:58:17.691Z,97034.00
2022-12-07T02:01:03.832Z,97034.00
2022-12-07T02:03:50.125Z,97019.09
2022-12-07T02:06:39.489Z,97012.25
2022-12-07T02:09:25.305Z,97015.25
2022-12-07T02:12:13.829Z,97013.63
2022-12-07T02:14:59.513Z,97016.22
2022-12-07T02:18:10.726Z,97017.41
2022-12-07T02:21:21.150Z,97008.13
2022-12-07T02:24:44.422Z,97003.88
2022-12-07T02:27:51.443Z,97009.47
2022-12-07T02:30:45.769Z,97019.94
2022-12-07T02:34:00.693Z,97020.91
2022-12-07T02:36:53.874Z,97009.66
2022-12-07T02:39:49.069Z,97002.63
2022-12-07T02:42:41.542Z,96999.19
2022-12-07T02:45:30.582Z,96994.16
2022-12-07T02:48:19.157Z,97000.38
2022-12-07T02:51:05.138Z,97001.19
2022-12-07T02:53:50.893Z,96995.94
2022-12-07T02:56:45.545Z,96984.69
2022-12-07T02:59:31.005Z,96991.53
2022-12-07T03:02:35.284Z,96986.31
2022-12-07T03:05:30.042Z,96987.31
2022-12-07T03:08:33.781Z,96987.13
2022-12-07T03:11:42.069Z,96984.50
2022-12-07T03:14:37.453Z,96981.09
2022-12-07T03:17:29.829Z,96987.13
2022-12-07T03:20:19.966Z,96987.13
2022-12-07T03:23:10.704Z,96984.69
2022-12-07T03:26:01.244Z,96985.69
2022-12-07T03:28:53.772Z,96993.16
2022-12-07T03:31:44.158Z,96986.94
2022-12-07T03:34:39.409Z,96994.78
2022-12-07T03:37:36.044Z,96986.94
2022-12-07T03:40:45.833Z,96985.13
2022-12-07T03:43:32.135Z,96985.94
2022-12-07T03:46:44.583Z,96983.50
2022-12-07T03:49:34.035Z,96981.69
2022-12-07T03:52:29.531Z,96983.50
2022-12-07T03:55:44.459Z,96979.91
2022-12-07T03:58:31.349Z,96977.44
2022-12-07T04:01:19.088Z,96974.22
2022-12-07T04:04:04.816Z,96979.66
2022-12-07T04:06:50.601Z,96980.00
2022-12-07T04:09:36.185Z,96976.59
2022-12-07T04:12:22.868Z,96978.38
2022-12-07T04:15:09.098Z,96970.53
2022-12-07T04:17:56.031Z,96971.34
2022-12-07T04:20:42.307Z,96964.50
2022-12-07T04:23:28.056Z,96956.66
2022-12-07T04:26:13.413Z,96963.69
2022-12-07T04:29:01.385Z,96965.50
2022-12-07T04:31:51.712Z,96956.81
2022-12-07T04:34:37.749Z,96957.84
2022-12-07T04:37:23.971Z,96957.00
2022-12-07T04:40:12.248Z,96965.84
2022-12-07T04:42:58.083Z,96950.34
2022-12-07T04:45:48.549Z,96954.78
2022-12-07T04:48:34.243Z,96955.78
2022-12-07T04:51:25.545Z,96955.78
2022-12-07T04:54:11.601Z,96951.72
2022-12-07T04:56:57.129Z,96952.72
2022-12-07T04:59:46.227Z,96947.03
2022-12-07T05:02:31.952Z,96955.22
2022-12-07T05:05:20.066Z,96946.94
2022-12-07T05:08:06.028Z,96950.72
2022-12-07T05:10:52.101Z,96954.50
2022-12-07T05:13:37.995Z,96955.06
2022-12-07T05:16:23.920Z,96948.13
2022-12-07T05:19:10.222Z,96958.13
2022-12-07T05:21:58.881Z,96958.06
2022-12-07T05:24:44.327Z,96953.53
2022-12-07T05:27:29.757Z,96960.94
2022-12-07T05:30:15.423Z,96964.88
2022-12-07T05:33:01.536Z,96957.41
2022-12-07T05:35:47.373Z,96951.91
2022-12-07T05:38:33.900Z,96951.28
2022-12-07T05:41:38.828Z,96954.88
2022-12-07T05:44:24.576Z,96952.44
2022-12-07T05:47:11.058Z,96963.88
2022-12-07T05:49:56.607Z,96960.63
2022-12-07T05:52:42.080Z,96959.38
2022-12-07T05:55:27.476Z,96963.31
2022-12-07T05:58:31.628Z,96966.47
2022-12-07T06:01:17.347Z,96965.03
2022-12-07T06:04:03.261Z,96959.50
2022-12-07T06:06:48.867Z,96962.66
2022-12-07T06:09:35.202Z,96960.75
2022-12-07T06:12:35.729Z,96961.09
2022-12-07T06:15:21.677Z,96963.25
2022-12-07T06:18:07.647Z,96966.03
2022-12-07T06:20:52.920Z,96969.81
2022-12-07T06:23:38.412Z,96970.78
2022-12-07T06:26:23.893Z,96964.94
2022-12-07T06:29:09.710Z,96967.53
2022-12-07T06:31:55.262Z,96973.72
2022-12-07T06:34:40.951Z,96978.34
2022-12-07T06:37:26.551Z,96973.28
2022-12-07T06:40:12.231Z,96971.03
2022-12-07T06:42:57.991Z,96965.16
2022-12-07T06:45:44.291Z,96960.13
2022-12-07T06:48:29.635Z,96959.31
2022-12-07T06:51:14.955Z,96960.13
2022-12-07T06:54:00.358Z,96957.19
2022-12-07T06:56:45.864Z,96957.81
2022-12-07T06:59:31.420Z,96960.22
2022-12-07T07:02:16.767Z,96958.25
2022-12-07T07:05:02.493Z,96949.28
2022-12-07T07:08:20.055Z,96950.38
2022-12-07T07:10:54.507Z,96942.81
2022-12-07T07:13:40.201Z,96938.72
2022-12-07T07:16:25.877Z,96952.22
2022-12-07T07:19:11.399Z,96952.03
2022-12-07T07:21:57.225Z,96949.06
2022-12-07T07:24:42.822Z,96959.97
2022-12-07T07:27:28.186Z,96949.97
2022-12-07T07:30:14.325Z,96955.19
2022-12-07T07:33:01.580Z,96951.78
2022-12-07T07:35:47.048Z,96949.16
2022-12-07T07:38:32.426Z,96955.84
2022-12-07T07:41:17.787Z,96963.16
2022-12-07T07:44:03.493Z,96961.00
2022-12-07T07:46:49.050Z,96964.66
2022-12-07T07:49:34.591Z,96971.19
2022-12-07T07:52:20.518Z,96966.22
2022-12-07T07:55:06.636Z,96967.47
2022-12-07T07:57:54.858Z,96981.00
2022-12-07T08:00:40.292Z,96980.66
2022-12-07T08:03:25.675Z,96988.31
2022-12-07T08:06:11.412Z,96984.69
2022-12-07T08:08:59.013Z,96987.97
2022-12-07T08:11:44.819Z,97002.47
2022-12-07T08:14:30.596Z,96997.69
2022-12-07T08:17:16.050Z,97006.13
2022-12-07T08:20:02.922Z,97004.81
2022-12-07T08:22:48.840Z,97004.44
2022-12-07T08:25:34.798Z,97006.72
2022-12-07T08:28:20.221Z,97007.16
2022-12-07T08:31:18.852Z,97015.44
2022-12-07T08:34:04.974Z,97019.31
2022-12-07T08:36:52.960Z,97013.75
2022-12-07T08:39:38.430Z,97017.59
2022-12-07T08:42:28.521Z,97006.78
2022-12-07T08:45:16.071Z,97013.09
2022-12-07T08:48:07.298Z,97013.53
2022-12-07T08:50:53.202Z,97009.56
2022-12-07T08:53:40.711Z,97010.84
2022-12-07T08:56:26.314Z,97015.88
2022-12-07T08:59:13.678Z,97020.56
2022-12-07T09:01:59.368Z,97018.59
2022-12-07T09:04:44.846Z,97021.03
2022-12-07T09:07:33.983Z,97023.44
2022-12-07T09:10:19.707Z,97021.47
2022-12-07T09:13:05.167Z,97021.47
2022-12-07T09:15:50.624Z,97031.53
2022-12-07T09:18:35.997Z,97025.31
2022-12-07T09:21:21.204Z,97024.97
2022-12-07T09:24:06.970Z,97021.34
2022-12-07T09:26:52.433Z,97016.09
2022-12-07T09:29:38.228Z,97015.75
2022-12-07T09:32:24.197Z,97018.03
2022-12-07T09:35:10.867Z,97026.47
2022-12-07T09:37:56.392Z,97014.81
2022-12-07T09:40:44.589Z,97029.34
2022-12-07T09:43:30.365Z,97022.13
2022-12-07T09:46:20.169Z,97029.00
2022-12-07T09:49:10.934Z,97022.75
2022-12-07T09:52:05.645Z,97023.38
2022-12-07T09:54:51.854Z,97016.16
2022-12-07T09:57:38.225Z,97015.81
2022-12-07T10:00:25.009Z,97002.53
2022-12-07T10:03:12.788Z,97004.94
2022-12-07T10:05:58.484Z,97002.34
2022-12-07T10:08:44.618Z,97009.81
2022-12-07T10:11:30.292Z,97009.00
2022-12-07T10:14:15.698Z,96998.38
2022-12-07T10:17:01.920Z,97001.41
2022-12-07T10:19:47.498Z,96994.19
2022-12-07T10:22:32.850Z,96996.25
2022-12-07T10:25:20.923Z,96993.88
2022-12-07T10:28:09.369Z,96987.09
2022-12-07T10:31:00.227Z,96974.59
2022-12-07T10:33:59.014Z,96974.25
2022-12-07T10:36:44.625Z,96974.03
2022-12-07T10:39:30.013Z,96975.66
2022-12-07T10:42:24.436Z,96977.50
2022-12-07T10:45:12.878Z,96976.28
2022-12-07T10:48:08.668Z,96980.34
2022-12-07T10:51:03.661Z,96970.31
2022-12-07T10:54:16.159Z,96973.56
2022-12-07T10:57:44.752Z,96971.53
2022-12-07T11:00:45.852Z,96967.72
2022-12-07T11:03:53.057Z,96964.53
2022-12-07T11:06:38.166Z,96968.41
2022-12-07T11:10:07.905Z,96953.50
2022-12-07T11:13:05.902Z,96960.81
2022-12-07T11:16:15.256Z,96956.16
2022-12-07T11:19:28.394Z,96956.16
2022-12-07T11:22:52.899Z,96953.19
2022-12-07T11:26:05.876Z,96957.59
2022-12-07T11:29:28.917Z,96947.50
2022-12-07T11:32:26.847Z,96951.13
2022-12-07T11:35:20.841Z,96958.34
2022-12-07T11:38:37.234Z,96958.75
2022-12-07T11:41:32.517Z,96952.09
2022-12-07T11:44:27.034Z,96953.06
2022-12-07T11:47:22.569Z,96944.97
2022-12-07T11:50:37.279Z,96939.13
2022-12-07T11:53:30.976Z,96942.13
2022-12-07T11:56:23.823Z,96939.88
2022-12-07T11:59:24.708Z,96939.88
2022-12-07T12:02:15.390Z,96939.25
2022-12-07T12:05:03.280Z,96936.81
2022-12-07T12:11:31.297Z,96928.94
2022-12-07T12:14:57.156Z,96927.31
2022-12-07T12:18:02.310Z,96924.69
2022-12-07T12:21:11.425Z,96918.47
2022-12-07T12:24:04.576Z,96921.88
2022-12-07T12:27:00.663Z,96921.88
2022-12-07T12:29:52.797Z,96917.44
2022-12-07T12:32:42.214Z,96922.66
2022-12-07T12:35:32.263Z,96921.50
2022-12-07T12:38:31.471Z,96913.47
2022-12-07T12:41:48.818Z,96924.53
2022-12-07T12:44:34.644Z,96911.44
2022-12-07T12:47:40.658Z,96916.69
2022-12-07T12:50:32.481Z,96913.88
2022-12-07T12:53:26.533Z,96911.06
2022-12-07T12:56:14.761Z,96913.50
2022-12-07T12:59:24.552Z,96913.69
2022-12-07T13:02:23.360Z,96911.06
2022-12-07T13:05:10.990Z,96902.22
2022-12-07T13:07:56.654Z,96911.06
2022-12-07T13:10:44.973Z,96913.25
2022-12-07T13:13:32.803Z,96908.22
2022-12-07T13:16:18.175Z,96903.97
2022-12-07T13:19:03.737Z,96905.81
2022-12-07T13:21:49.333Z,96904.97
2022-12-07T13:24:35.247Z,96906.16
2022-12-07T13:27:20.605Z,96905.16
2022-12-07T13:30:17.769Z,96912.19
2022-12-07T13:33:04.766Z,96913.81
2022-12-07T13:35:55.385Z,96903.53
2022-12-07T13:38:57.583Z,96900.13
2022-12-07T13:41:44.735Z,96903.53
2022-12-07T13:44:40.660Z,96905.72
2022-12-07T13:47:30.460Z,96906.94
2022-12-07T13:50:28.156Z,96895.66
2022-12-07T13:53:15.200Z,96901.88
2022-12-07T13:56:02.277Z,96904.50
2022-12-07T13:58:47.777Z,96902.88
2022-12-07T14:01:33.617Z,96903.06
2022-12-07T14:04:31.520Z,96910.09
2022-12-07T14:07:23.008Z,96917.97
2022-12-07T14:10:28.545Z,96908.47
2022-12-07T14:13:59.179Z,96909.47
2022-12-07T14:16:55.982Z,96909.47
2022-12-07T14:19:48.675Z,96912.09
2022-12-07T14:22:37.070Z,96912.09
2022-12-07T14:25:27.833Z,96917.31
2022-12-07T14:28:32.205Z,96913.13
2022-12-07T14:31:27.461Z,96917.53
2022-12-07T14:34:15.994Z,96913.28
2022-12-07T14:37:01.383Z,96909.06
2022-12-07T14:39:46.935Z,96909.06
2022-12-07T14:42:35.604Z,96906.44
2022-12-07T14:45:23.512Z,96895.97
2022-12-07T14:54:26.246Z,96881.44
2022-12-07T14:57:12.323Z,96886.88
2022-12-07T14:59:57.993Z,96887.06
2022-12-07T15:02:43.339Z,96882.81
2022-12-07T15:05:28.624Z,96874.19
2022-12-07T15:08:14.547Z,96868.13
2022-12-07T15:11:00.138Z,96880.41
2022-12-07T15:14:04.634Z,96877.97
2022-12-07T15:17:08.451Z,96881.59
2022-12-07T15:19:55.417Z,96877.16
2022-12-07T15:22:41.072Z,96881.59
2022-12-07T15:25:26.769Z,96885.19
2022-12-07T15:28:12.297Z,96880.97
2022-12-07T15:30:57.868Z,96879.34
2022-12-07T15:33:44.167Z,96880.97
2022-12-07T15:36:31.840Z,96875.94
2022-12-07T15:39:17.156Z,96865.63
2022-12-07T15:42:03.372Z,96865.22
2022-12-07T15:45:07.803Z,96877.88
2022-12-07T15:48:26.712Z,96868.56
2022-12-07T15:51:09.947Z,96871.56
2022-12-07T15:53:55.494Z,96868.16
2022-12-07T15:56:40.927Z,96872.38
2022-12-07T15:59:28.220Z,96866.34
2022-12-07T16:02:14.033Z,96866.34
2022-12-07T16:04:59.707Z,96860.31
2022-12-07T16:07:47.642Z,96859.47
2022-12-07T16:10:33.794Z,96858.69
2022-12-07T16:13:20.438Z,96860.47
2022-12-07T16:16:08.361Z,96867.53
2022-12-07T16:18:53.695Z,96864.91
2022-12-07T16:21:39.547Z,96871.75
2022-12-07T16:24:25.075Z,96869.94
2022-12-07T16:27:10.511Z,96859.28
2022-12-07T16:29:56.080Z,96863.53
2022-12-07T16:32:41.790Z,96866.97
2022-12-07T16:35:27.271Z,96865.16
2022-12-07T16:38:12.879Z,96864.94
2022-12-07T16:40:58.578Z,96865.78
2022-12-07T16:43:43.833Z,96863.97
2022-12-07T16:46:29.556Z,96868.19
2022-12-07T16:49:16.629Z,96868.84
2022-12-07T16:52:19.966Z,96866.81
2022-12-07T16:55:06.470Z,96862.41
2022-12-07T16:57:51.921Z,96873.66
2022-12-07T17:00:38.338Z,96869.63
2022-12-07T17:03:23.893Z,96871.00
2022-12-07T17:06:24.650Z,96873.38
2022-12-07T17:09:11.878Z,96869.91
2022-12-07T17:11:58.791Z,96871.00
2022-12-07T17:15:02.970Z,96869.53
2022-12-07T17:17:54.709Z,96866.59
2022-12-07T17:20:40.394Z,96866.50
2022-12-07T17:23:27.382Z,96871.66
2022-12-07T17:26:17.414Z,96860.97
2022-12-07T17:29:04.374Z,96865.91
2022-12-07T17:31:51.983Z,96870.28
2022-12-07T17:34:38.203Z,96868.22
2022-12-07T17:37:23.842Z,96869.53
2022-12-07T17:40:09.705Z,96857.84
2022-12-07T17:42:55.859Z,96854.00
2022-12-07T17:45:41.369Z,96854.00
2022-12-07T17:48:27.735Z,96850.75
2022-12-07T17:51:31.521Z,96857.94
2022-12-07T17:54:18.971Z,96851.75
2022-12-07T17:57:04.576Z,96863.38
2022-12-07T17:59:51.271Z,96862.13
2022-12-07T18:02:36.637Z,96859.66
2022-12-07T18:05:22.703Z,96851.22
2022-12-07T18:08:08.489Z,96859.06
2022-12-07T18:11:01.056Z,96861.81
2022-12-07T18:13:46.819Z,96868.06
2022-12-07T18:16:35.452Z,96866.63
2022-12-07T18:19:20.924Z,96866.00
2022-12-07T18:22:06.440Z,96861.13
2022-12-07T18:24:51.988Z,96858.88
2022-12-07T18:27:37.843Z,96861.03
2022-12-07T18:30:37.045Z,96865.19
2022-12-07T18:33:28.767Z,96868.50
2022-12-07T18:36:16.160Z,96868.06
2022-12-07T18:39:07.387Z,96866.34
2022-12-07T18:41:53.094Z,96869.31
2022-12-07T18:44:38.643Z,96868.06
2022-12-07T18:47:24.127Z,96862.66
2022-12-07T18:50:11.065Z,96871.31
2022-12-07T18:53:01.255Z,96875.53
2022-12-07T18:55:46.853Z,96874.72
2022-12-07T18:58:32.895Z,96873.72
2022-12-07T19:01:18.426Z,96866.69
2022-12-07T19:04:04.878Z,96869.31
2022-12-07T19:06:51.000Z,96862.31
2022-12-07T19:09:36.683Z,96866.69
2022-12-07T19:12:22.660Z,96864.28
2022-12-07T19:15:09.553Z,96859.44
2022-12-07T19:17:55.331Z,96856.97
2022-12-07T19:20:41.971Z,96858.41
2022-12-07T19:23:27.684Z,96862.31
2022-12-07T19:26:13.222Z,96858.16
2022-12-07T19:28:59.037Z,96854.81
2022-12-07T19:31:44.881Z,96855.09
2022-12-07T19:34:31.751Z,96848.53
2022-12-07T19:37:18.710Z,96844.38
2022-12-07T19:40:06.545Z,96845.44
2022-12-07T19:42:52.241Z,96851.94
2022-12-07T19:45:38.122Z,96844.91
2022-12-07T19:48:23.571Z,96845.09
2022-12-07T19:51:08.992Z,96848.69
2022-12-07T19:53:58.009Z,96847.06
2022-12-07T19:56:45.555Z,96846.28
2022-12-07T19:59:31.944Z,96842.84
2022-12-07T20:02:17.803Z,96853.13
2022-12-07T20:05:06.383Z,96851.31
2022-12-07T20:07:53.274Z,96846.88
2022-12-07T20:10:39.902Z,96844.47
2022-12-07T20:13:32.707Z,96841.84
2022-12-07T20:16:21.691Z,96838.25
2022-12-07T20:19:10.016Z,96833.66
2022-12-07T20:21:55.676Z,96835.28
2022-12-07T20:24:42.225Z,96831.50
2022-12-07T20:27:29.124Z,96826.88
2022-12-07T20:30:15.453Z,96832.75
2022-12-07T20:33:01.871Z,96829.94
2022-12-07T20:35:48.089Z,96824.56
2022-12-07T20:38:33.936Z,96819.94
2022-12-07T20:41:38.446Z,96818.75
2022-12-07T20:44:25.045Z,96815.16
2022-12-07T20:47:11.006Z,96814.16
2022-12-07T20:49:56.425Z,96801.91
2022-12-07T20:52:41.875Z,96799.94
2022-12-07T20:55:27.332Z,96805.97
2022-12-07T20:58:12.795Z,96797.94
2022-12-07T21:01:02.390Z,96811.63
2022-12-07T21:03:48.064Z,96801.16
2022-12-07T21:06:34.235Z,96802.78
2022-12-07T21:09:21.822Z,96804.59
2022-12-07T21:12:11.403Z,96810.63
2022-12-07T21:14:57.191Z,96810.47
2022-12-07T21:17:42.714Z,96805.25
2022-12-07T21:20:28.103Z,96818.31
2022-12-07T21:23:13.558Z,96820.91
2022-12-07T21:25:59.001Z,96804.22
2022-12-07T21:28:44.497Z,96813.34
2022-12-07T21:31:30.189Z,96804.50
2022-12-07T21:34:16.151Z,96812.94
2022-12-07T21:37:01.627Z,96814.56
2022-12-07T21:39:47.152Z,96812.94
2022-12-07T21:42:32.879Z,96812.94
2022-12-07T21:45:18.295Z,96814.56
2022-12-07T21:48:03.749Z,96818.81
2022-12-07T21:50:49.145Z,96806.38
2022-12-07T21:53:35.615Z,96813.22
2022-12-07T21:56:41.417Z,96806.00
2022-12-07T21:59:27.300Z,96794.19
2022-12-07T22:02:14.299Z,96802.63
2022-12-07T22:04:59.374Z,96793.81
2022-12-07T22:07:45.375Z,96786.94
2022-12-07T22:10:31.768Z,96784.34
2022-12-07T22:13:17.076Z,96786.16
2022-12-07T22:16:03.313Z,96772.25
2022-12-07T22:18:49.201Z,96775.91
2022-12-07T22:21:34.970Z,96779.66
2022-12-07T22:24:20.468Z,96774.63
2022-12-07T22:27:05.897Z,96776.44
2022-12-07T22:29:51.754Z,96774.03
2022-12-07T22:32:48.144Z,96768.34
2022-12-07T22:35:34.225Z,96765.91
2022-12-07T22:38:19.607Z,96760.69
2022-12-07T22:41:19.487Z,96756.44
2022-12-07T22:44:07.362Z,96750.63
2022-12-07T22:46:52.684Z,96752.59
2022-12-07T22:49:38.107Z,96750.19
2022-12-07T22:52:23.562Z,96747.13
2022-12-07T22:55:14.326Z,96745.50
2022-12-07T22:57:59.711Z,96745.69
2022-12-07T23:00:48.217Z,96745.91
2022-12-07T23:03:34.519Z,96736.44
2022-12-07T23:06:23.204Z,96728.41
2022-12-07T23:09:12.477Z,96736.03
2022-12-07T23:12:36.294Z,96735.69
2022-12-07T23:15:21.831Z,96727.66
2022-12-07T23:18:07.337Z,96729.28
2022-12-07T23:20:56.130Z,96731.69
2022-12-07T23:23:41.839Z,96734.94
2022-12-07T23:26:27.608Z,96734.56
2022-12-07T23:29:17.549Z,96743.66
2022-12-07T23:32:04.074Z,96733.81
2022-12-07T23:34:50.796Z,96735.22
2022-12-07T23:37:36.254Z,96733.88
2022-12-07T23:40:21.684Z,96734.31
2022-12-07T23:43:07.333Z,96733.31
2022-12-07T23:45:52.870Z,96733.91
2022-12-07T23:48:39.233Z,96724.09
2022-12-07T23:51:25.883Z,96728.34
2022-12-07T23:54:12.803Z,96735.97
2022-12-07T23:56:58.169Z,96718.31
2022-12-07T23:59:43.685Z,96720.72
